Flight Track Log - Related Links

Times and Time Zones

All times are in EDT time to prevent confusion due to time zone crossing. See the JBU1329 flight status page for this flight to view local times or setup timezone preferences in your user account.

Time Position Orientation Groundspeed Altitude Reporting Facility
EDT Latitude Longitude Course Direction KTS MPH feet Rate Location/Type
Mon 09:14:27 AM 42.3500 -71.0167 240° Southwest 153 176 700  Level KA90
Mon 09:16:00 AM 42.3888 -70.7388 144° Southeast  Level FlightAware Approximate
Mon 09:16:34 AM 42.3150 -70.8986 112° Southeast 178 205 3,900  Level Boston Center
Mon 09:17:00 AM 42.3248 -70.7216 172° South  Level FlightAware Approximate
Mon 09:17:34 AM 42.3278 -70.7692 82° East 241 277 7,300  Level Boston Center
Mon 09:18:00 AM 42.2726 -70.7578 228° Southwest  Level FlightAware Approximate
Mon 09:18:34 AM 42.2644 -70.7231 152° Southeast 223 257 10,300  Level Boston Center
Mon 09:19:00 AM 42.2297 -70.8252 240° Southwest  Level FlightAware Approximate
Mon 09:19:35 AM 42.1942 -70.7531 198° South 207 238 12,700  Level Boston Center
Mon 09:20:34 AM 42.1725 -70.8489 253° West 209 241 14,100 2,067 Climbing Boston Center
Mon 09:21:34 AM 42.1472 -70.9811 256° West 305 351 16,800 2,380 Climbing Boston Center
Mon 09:22:35 AM 42.1131 -71.0856 246° West 330 380 18,900 2,050 Climbing Boston Center
Mon 09:23:34 AM 42.0731 -71.2264 249° West 351 404 20,900 1,950 Climbing Boston Center
Mon 09:24:35 AM 42.0306 -71.3528 246° West 364 419 22,800 1,800 Climbing Boston Center
Mon 09:25:34 AM 41.9900 -71.4792 247° West 370 426 24,500 1,664 Climbing Boston Center
Mon 09:26:34 AM 41.9492 -71.5917 244° Southwest 381 438 26,100 1,500 Climbing Boston Center
Mon 09:27:34 AM 41.9064 -71.7261 247° West 386 444 27,500 1,273 Climbing Boston Center
Mon 09:28:46 AM 41.8531 -71.8883 246° West 391 450 28,900 1,273 Climbing Boston Center
Mon 09:29:46 AM 41.8056 -72.0250 245° Southwest 396 456 30,300 1,367 Climbing Boston Center
Mon 09:31:00 AM 41.7561 -72.1149 246° West  Level FlightAware Approximate
Mon 09:31:46 AM 41.7147 -72.3067 246° West 396 456 33,000  Level Boston Center
Mon 09:32:46 AM 41.6708 -72.4372 246° West 396 456 34,800 1,488 Climbing Boston Center
Mon 09:33:47 AM 41.6292 -72.5567 245° Southwest 386 444 36,000 600 Climbing Boston Center
Mon 09:34:46 AM 41.5997 -72.6872 253° West 373 429 36,000  Level Boston Center
Mon 09:35:46 AM 41.5808 -72.8231 260° West 373 429 36,000  Level Boston Center
Mon 09:36:46 AM 41.5572 -72.9617 257° West 378 435 36,000  Level Boston Center
Mon 09:37:46 AM 41.5086 -73.0831 242° Southwest 373 429 36,000 -50 Level Boston Center
Mon 09:38:47 AM 41.4558 -73.2017 239° Southwest 373 429 35,900 -519 Descending Boston Center
Mon 09:40:28 AM 41.3633 -73.4056 239° Southwest 386 444 34,600 -708 Descending New York Center
Mon 09:41:28 AM 41.3108 -73.5222 239° Southwest 394 453 34,000 -298 Descending New York Center
Mon 09:42:29 AM 41.2453 -73.6436 234° Southwest 403 464 34,000  Level New York Center
Mon 09:43:29 AM 41.1781 -73.7594 232° Southwest 409 471 34,000  Level New York Center
Mon 09:44:27 AM 41.1083 -73.8775 232° Southwest 414 476 34,000  Level New York Center
Mon 09:45:28 AM 41.0406 -73.9953 233° Southwest 409 471 34,000  Level New York Center
Mon 09:46:30 AM 40.9728 -74.1075 231° Southwest 404 465 34,000 -50 Level New York Center
Mon 09:47:29 AM 40.9008 -74.2219 230° Southwest 404 465 33,900 -600 Descending New York Center
Mon 09:48:30 AM 40.8261 -74.3525 233° Southwest 404 465 32,800 -992 Descending New York Center
Mon 09:49:30 AM 40.7497 -74.4664 228° Southwest 410 472 31,900 -1,026 Descending New York Center
Mon 09:50:27 AM 40.6789 -74.5911 233° Southwest 422 486 30,800 -1,017 Descending New York Center
Mon 09:51:28 AM 40.6150 -74.6969 232° Southwest 428 493 29,900 -992 Descending New York Center
Mon 09:52:28 AM 40.5297 -74.8203 228° Southwest 428 493 28,800 -942 Descending New York Center
Mon 09:53:29 AM 40.4597 -74.9172 227° Southwest 416 479 28,000 -1,041 Descending New York Center
Mon 09:54:29 AM 40.3761 -75.0347 227° Southwest 405 466 26,700 -1,785 Descending New York Center
Mon 09:55:30 AM 40.3014 -75.1389 227° Southwest 405 466 24,400 -2,218 Descending New York Center
Mon 09:56:28 AM 40.2333 -75.2381 228° Southwest 392 451 22,300 -2,118 Descending New York Center
Mon 09:57:29 AM 40.1672 -75.3261 226° Southwest 382 440 20,200 -1,636 Descending New York Center
Mon 09:58:29 AM 40.0925 -75.4297 227° Southwest 371 427 19,000 -595 Descending New York Center
Mon 09:59:30 AM 40.0328 -75.5125 227° Southwest 360 414 19,000  Level New York Center
Mon 10:00:28 AM 39.9600 -75.6133 227° Southwest 360 414 19,000 -508 Level New York Center
Mon 10:01:28 AM 39.8975 -75.7117 230° Southwest 355 409 18,000 -942 Descending New York Center
Mon 10:02:29 AM 39.8475 -75.8056 235° Southwest 334 384 17,100 -1,345 Descending New York Center
Mon 10:04:22 AM 39.7500 -75.9833 235° Southwest 312 359 14,100 -1,581 Descending Potomac TRACON
Mon 10:05:16 AM 39.7167 -76.0667 243° Southwest 303 349 12,700 -1,250 Descending Potomac TRACON
Mon 10:06:22 AM 39.6667 -76.1500 232° Southwest 270 311 11,600 -1,429 Descending Potomac TRACON
Mon 10:07:22 AM 39.6167 -76.2333 232° Southwest 276 318 9,700 -1,789 Descending Potomac TRACON
Mon 10:08:16 AM 39.5833 -76.3167 243° Southwest 271 312 8,200 -1,684 Descending Potomac TRACON
Mon 10:09:16 AM 39.5500 -76.3833 237° Southwest 271 312 6,500 -1,600 Descending Potomac TRACON
Mon 10:10:16 AM 39.5000 -76.4667 232° Southwest 270 311 5,000 -800 Descending Potomac TRACON
Mon 10:11:16 AM 39.4500 -76.5167 218° Southwest 284 327 4,900 -470 Descending Potomac TRACON
Mon 10:12:11 AM 39.3667 -76.4833 163° South 278 320 4,100 -446 Descending Potomac TRACON
Mon 10:13:17 AM 39.3000 -76.4667 169° South 260 299 4,000 -50 Descending Potomac TRACON
Mon 10:14:10 AM 39.2500 -76.4500 166° South 211 243 4,000  Level Potomac TRACON
Mon 10:15:05 AM 39.1833 -76.4500 180° South 216 249 4,000 -730 Level Potomac TRACON
Mon 10:16:05 AM 39.1333 -76.4667 194° South 205 236 2,600 -1,105 Descending Potomac TRACON
Mon 10:16:59 AM 39.1000 -76.5000 218° Southwest 188 216 1,900 -316 Descending Potomac TRACON
Mon 10:17:59 AM 39.0667 -76.5500 229° Southwest 182 209 2,000  Climbing Potomac TRACON
Mon 10:18:59 AM 39.0833 -76.6000 293° West 167 192 1,900 -421 Descending Potomac TRACON
Mon 10:19:53 AM 39.1167 -76.6167 339° North 144 166 1,200 -737 Descending Potomac TRACON
Mon 10:20:53 AM 39.1500 -76.6500 322° Northwest 136 157 500 -700 Descending Potomac TRACON

Login

Don't have an account? Register now (free) for customized features, flight alerts, and more!